Terminal Aerodrome Forecast
Issued by NWS

Home | Current Version | Previous Version | Text Only | Print | Product List | Glossary On
Versions: 1 2 3 4 5 6 7 8 9 10 11 12 13 14 15 16 17 18 19
054
FTUS41 KGYX 180520
TAFHIE
TAF
KHIE 180520Z 1806/1906 00000KT P6SM VCSH BKN090
     FM181100 VRB03KT P6SM OVC050
      TEMPO 1811/1815 2SM -SHRA OVC015
     FM181600 16005KT 2SM -RA BR OVC015
     FM182100 15005KT 4SM -RA OVC008=

USA.gov is the U.S. government's official web portal to all federal, state and local government web resources and services.